sensor_id;sensor_type;location;lat;lon;timestamp;temperature;humidity
27439;DHT22;14887;51.252;7.470;2023-07-13T00:00:28;14.70;99.90
27439;DHT22;14887;51.252;7.470;2023-07-13T00:02:54;14.60;99.90
27439;DHT22;14887;51.252;7.470;2023-07-13T00:05:21;14.60;99.90
27439;DHT22;14887;51.252;7.470;2023-07-13T00:07:47;14.50;99.90
27439;DHT22;14887;51.252;7.470;2023-07-13T00:10:13;14.50;99.90
27439;DHT22;14887;51.252;7.470;2023-07-13T00:12:39;14.50;99.90
27439;DHT22;14887;51.252;7.470;2023-07-13T00:15:20;14.40;99.90
27439;DHT22;14887;51.252;7.470;2023-07-13T00:17:52;14.40;99.90
27439;DHT22;14887;51.252;7.470;2023-07-13T00:20:21;14.30;99.90
27439;DHT22;14887;51.252;7.470;2023-07-13T00:22:48;14.30;99.90
27439;DHT22;14887;51.252;7.470;2023-07-13T00:25:14;14.30;99.90
27439;DHT22;14887;51.252;7.470;2023-07-13T00:27:42;14.30;99.90
27439;DHT22;14887;51.252;7.470;2023-07-13T00:30:08;14.20;99.90
27439;DHT22;14887;51.252;7.470;2023-07-13T00:32:34;14.20;99.90
27439;DHT22;14887;51.252;7.470;2023-07-13T00:35:00;14.10;1.00
27439;DHT22;14887;51.252;7.470;2023-07-13T00:37:26;14.00;1.00
27439;DHT22;14887;51.252;7.470;2023-07-13T00:39:52;14.00;1.00
27439;DHT22;14887;51.252;7.470;2023-07-13T00:42:17;13.90;1.00
27439;DHT22;14887;51.252;7.470;2023-07-13T00:45:05;14.00;1.00
27439;DHT22;14887;51.252;7.470;2023-07-13T00:47:32;14.10;1.00
27439;DHT22;14887;51.252;7.470;2023-07-13T00:49:58;14.00;1.00
27439;DHT22;14887;51.252;7.470;2023-07-13T00:52:24;13.90;95.80
27439;DHT22;14887;51.252;7.470;2023-07-13T00:54:49;13.90;1.00
27439;DHT22;14887;51.252;7.470;2023-07-13T00:57:18;13.90;99.90
27439;DHT22;14887;51.252;7.470;2023-07-13T00:59:51;13.90;99.90
27439;DHT22;14887;51.252;7.470;2023-07-13T01:02:17;13.80;99.90
27439;DHT22;14887;51.252;7.470;2023-07-13T01:04:43;13.80;99.90
27439;DHT22;14887;51.252;7.470;2023-07-13T01:07:09;13.70;1.00
27439;DHT22;14887;51.252;7.470;2023-07-13T01:09:36;13.70;1.00
27439;DHT22;14887;51.252;7.470;2023-07-13T01:12:02;13.60;76.10
27439;DHT22;14887;51.252;7.470;2023-07-13T01:14:28;13.50;99.90
27439;DHT22;14887;51.252;7.470;2023-07-13T01:16:54;13.50;99.90
27439;DHT22;14887;51.252;7.470;2023-07-13T01:19:36;13.50;99.90
27439;DHT22;14887;51.252;7.470;2023-07-13T01:22:09;13.50;99.90
27439;DHT22;14887;51.252;7.470;2023-07-13T01:24:37;13.50;99.90
27439;DHT22;14887;51.252;7.470;2023-07-13T01:27:04;13.50;99.90
27439;DHT22;14887;51.252;7.470;2023-07-13T01:29:32;13.40;99.90
27439;DHT22;14887;51.252;7.470;2023-07-13T01:32:00;13.40;99.90
27439;DHT22;14887;51.252;7.470;2023-07-13T01:34:26;13.30;1.00
27439;DHT22;14887;51.252;7.470;2023-07-13T01:36:53;13.30;1.00
27439;DHT22;14887;51.252;7.470;2023-07-13T01:39:20;13.30;1.00
27439;DHT22;14887;51.252;7.470;2023-07-13T01:41:46;13.30;1.00
27439;DHT22;14887;51.252;7.470;2023-07-13T01:44:12;13.20;99.90
27439;DHT22;14887;51.252;7.470;2023-07-13T01:46:37;13.20;99.90
27439;DHT22;14887;51.252;7.470;2023-07-13T01:49:03;13.20;99.90
27439;DHT22;14887;51.252;7.470;2023-07-13T01:51:28;13.20;99.90
27439;DHT22;14887;51.252;7.470;2023-07-13T01:53:54;13.10;1.00
27439;DHT22;14887;51.252;7.470;2023-07-13T01:56:20;13.10;1.00
27439;DHT22;14887;51.252;7.470;2023-07-13T01:58:46;13.10;1.00
27439;DHT22;14887;51.252;7.470;2023-07-13T02:01:12;13.10;1.00
27439;DHT22;14887;51.252;7.470;2023-07-13T02:03:37;13.10;1.00
27439;DHT22;14887;51.252;7.470;2023-07-13T02:06:03;13.10;1.00
27439;DHT22;14887;51.252;7.470;2023-07-13T02:08:29;13.10;1.00
27439;DHT22;14887;51.252;7.470;2023-07-13T02:10:54;13.00;1.00
27439;DHT22;14887;51.252;7.470;2023-07-13T02:13:20;13.00;1.00
27439;DHT22;14887;51.252;7.470;2023-07-13T02:15:45;13.00;1.00
27439;DHT22;14887;51.252;7.470;2023-07-13T02:18:11;13.00;99.90
27439;DHT22;14887;51.252;7.470;2023-07-13T02:20:39;13.00;98.40
27439;DHT22;14887;51.252;7.470;2023-07-13T02:23:05;12.90;1.00
27439;DHT22;14887;51.252;7.470;2023-07-13T02:25:31;12.90;1.00
27439;DHT22;14887;51.252;7.470;2023-07-13T02:27:56;12.90;1.00
27439;DHT22;14887;51.252;7.470;2023-07-13T02:30:22;12.90;1.00
27439;DHT22;14887;51.252;7.470;2023-07-13T02:32:50;12.90;96.90
27439;DHT22;14887;51.252;7.470;2023-07-13T02:35:16;12.80;99.90
27439;DHT22;14887;51.252;7.470;2023-07-13T02:37:41;12.80;99.90
27439;DHT22;14887;51.252;7.470;2023-07-13T02:40:07;12.80;99.90
27439;DHT22;14887;51.252;7.470;2023-07-13T02:42:34;12.70;1.00
27439;DHT22;14887;51.252;7.470;2023-07-13T02:45:00;12.70;1.00
27439;DHT22;14887;51.252;7.470;2023-07-13T02:47:25;12.70;1.00
27439;DHT22;14887;51.252;7.470;2023-07-13T02:49:52;12.60;12.70
27439;DHT22;14887;51.252;7.470;2023-07-13T02:52:17;12.60;99.90
27439;DHT22;14887;51.252;7.470;2023-07-13T02:54:43;12.60;99.90
27439;DHT22;14887;51.252;7.470;2023-07-13T02:57:08;12.60;99.90
27439;DHT22;14887;51.252;7.470;2023-07-13T02:59:34;12.60;99.90
27439;DHT22;14887;51.252;7.470;2023-07-13T03:02:01;12.60;99.90
27439;DHT22;14887;51.252;7.470;2023-07-13T03:04:27;12.60;99.90
27439;DHT22;14887;51.252;7.470;2023-07-13T03:06:52;12.60;99.90
27439;DHT22;14887;51.252;7.470;2023-07-13T03:09:18;12.60;99.90
27439;DHT22;14887;51.252;7.470;2023-07-13T03:11:44;12.50;99.90
27439;DHT22;14887;51.252;7.470;2023-07-13T03:14:09;12.50;99.90
27439;DHT22;14887;51.252;7.470;2023-07-13T03:16:35;12.40;1.00
27439;DHT22;14887;51.252;7.470;2023-07-13T03:19:01;12.50;99.90
27439;DHT22;14887;51.252;7.470;2023-07-13T03:21:27;12.50;99.90
27439;DHT22;14887;51.252;7.470;2023-07-13T03:23:53;12.50;99.90
27439;DHT22;14887;51.252;7.470;2023-07-13T03:26:19;12.40;99.90
27439;DHT22;14887;51.252;7.470;2023-07-13T03:28:45;12.40;1.00
27439;DHT22;14887;51.252;7.470;2023-07-13T03:31:17;12.40;1.00
27439;DHT22;14887;51.252;7.470;2023-07-13T03:33:43;12.30;1.00
27439;DHT22;14887;51.252;7.470;2023-07-13T03:36:14;12.20;1.00
27439;DHT22;14887;51.252;7.470;2023-07-13T03:38:41;12.20;1.00
27439;DHT22;14887;51.252;7.470;2023-07-13T03:41:07;12.20;1.00
27439;DHT22;14887;51.252;7.470;2023-07-13T03:43:32;12.20;2.30
27439;DHT22;14887;51.252;7.470;2023-07-13T03:45:58;12.30;55.30
27439;DHT22;14887;51.252;7.470;2023-07-13T03:48:24;12.30;66.70
27439;DHT22;14887;51.252;7.470;2023-07-13T03:50:50;12.40;44.70
27439;DHT22;14887;51.252;7.470;2023-07-13T03:53:15;12.30;94.00
27439;DHT22;14887;51.252;7.470;2023-07-13T03:55:41;12.30;99.90
27439;DHT22;14887;51.252;7.470;2023-07-13T03:58:29;12.40;99.80
27439;DHT22;14887;51.252;7.470;2023-07-13T04:00:55;12.30;99.90
27439;DHT22;14887;51.252;7.470;2023-07-13T04:03:20;12.40;65.40
27439;DHT22;14887;51.252;7.470;2023-07-13T04:05:46;12.50;1.00
27439;DHT22;14887;51.252;7.470;2023-07-13T04:08:12;12.50;1.00
27439;DHT22;14887;51.252;7.470;2023-07-13T04:10:38;12.50;1.00
27439;DHT22;14887;51.252;7.470;2023-07-13T04:13:04;12.50;1.00
27439;DHT22;14887;51.252;7.470;2023-07-13T04:15:31;12.50;1.00
27439;DHT22;14887;51.252;7.470;2023-07-13T04:17:57;12.50;1.00
27439;DHT22;14887;51.252;7.470;2023-07-13T04:20:25;12.50;1.00
27439;DHT22;14887;51.252;7.470;2023-07-13T04:22:51;12.50;1.00
27439;DHT22;14887;51.252;7.470;2023-07-13T04:25:18;12.50;1.00
27439;DHT22;14887;51.252;7.470;2023-07-13T04:27:44;12.60;1.00
27439;DHT22;14887;51.252;7.470;2023-07-13T04:30:09;12.60;1.00
27439;DHT22;14887;51.252;7.470;2023-07-13T04:32:35;12.60;1.00
27439;DHT22;14887;51.252;7.470;2023-07-13T04:35:01;12.70;1.00
27439;DHT22;14887;51.252;7.470;2023-07-13T04:37:27;12.70;1.00
27439;DHT22;14887;51.252;7.470;2023-07-13T04:39:52;12.70;1.00
27439;DHT22;14887;51.252;7.470;2023-07-13T04:42:18;12.80;1.00
27439;DHT22;14887;51.252;7.470;2023-07-13T04:44:51;12.80;1.00
27439;DHT22;14887;51.252;7.470;2023-07-13T04:47:19;12.90;1.00
27439;DHT22;14887;51.252;7.470;2023-07-13T04:49:45;12.90;1.00
27439;DHT22;14887;51.252;7.470;2023-07-13T04:52:11;12.90;1.00
27439;DHT22;14887;51.252;7.470;2023-07-13T04:54:37;13.00;1.00
27439;DHT22;14887;51.252;7.470;2023-07-13T04:57:03;13.00;1.00
27439;DHT22;14887;51.252;7.470;2023-07-13T04:59:34;13.10;1.00
27439;DHT22;14887;51.252;7.470;2023-07-13T05:02:00;13.10;1.00
27439;DHT22;14887;51.252;7.470;2023-07-13T05:04:26;13.20;1.00
27439;DHT22;14887;51.252;7.470;2023-07-13T05:06:52;13.20;1.00
27439;DHT22;14887;51.252;7.470;2023-07-13T05:09:18;13.30;1.00
27439;DHT22;14887;51.252;7.470;2023-07-13T05:11:44;13.40;99.90
27439;DHT22;14887;51.252;7.470;2023-07-13T05:14:09;13.40;99.90
27439;DHT22;14887;51.252;7.470;2023-07-13T05:16:35;13.50;99.90
27439;DHT22;14887;51.252;7.470;2023-07-13T05:19:01;13.50;99.90
27439;DHT22;14887;51.252;7.470;2023-07-13T05:21:27;13.50;99.90
27439;DHT22;14887;51.252;7.470;2023-07-13T05:23:53;13.60;1.00
27439;DHT22;14887;51.252;7.470;2023-07-13T05:26:18;13.70;99.90
27439;DHT22;14887;51.252;7.470;2023-07-13T05:28:44;13.80;1.00
27439;DHT22;14887;51.252;7.470;2023-07-13T05:31:10;13.80;99.90
27439;DHT22;14887;51.252;7.470;2023-07-13T05:33:35;14.00;99.90
27439;DHT22;14887;51.252;7.470;2023-07-13T05:36:01;13.90;99.90
27439;DHT22;14887;51.252;7.470;2023-07-13T05:38:27;13.90;99.90
27439;DHT22;14887;51.252;7.470;2023-07-13T05:40:55;14.10;99.90
27439;DHT22;14887;51.252;7.470;2023-07-13T05:43:21;14.10;99.90
27439;DHT22;14887;51.252;7.470;2023-07-13T05:45:47;14.20;1.00
27439;DHT22;14887;51.252;7.470;2023-07-13T05:48:13;14.30;1.00
27439;DHT22;14887;51.252;7.470;2023-07-13T05:50:38;14.40;1.00
27439;DHT22;14887;51.252;7.470;2023-07-13T05:53:04;14.50;1.00
27439;DHT22;14887;51.252;7.470;2023-07-13T05:55:30;14.70;1.00
27439;DHT22;14887;51.252;7.470;2023-07-13T05:57:56;14.90;1.00
27439;DHT22;14887;51.252;7.470;2023-07-13T06:00:23;14.80;1.00
27439;DHT22;14887;51.252;7.470;2023-07-13T06:02:49;15.10;1.00
27439;DHT22;14887;51.252;7.470;2023-07-13T06:05:15;15.40;1.00
27439;DHT22;14887;51.252;7.470;2023-07-13T06:07:41;15.60;99.90
27439;DHT22;14887;51.252;7.470;2023-07-13T06:10:07;15.70;1.00
27439;DHT22;14887;51.252;7.470;2023-07-13T06:12:33;15.80;1.00
27439;DHT22;14887;51.252;7.470;2023-07-13T06:14:58;16.00;99.90
27439;DHT22;14887;51.252;7.470;2023-07-13T06:17:24;16.30;1.00
27439;DHT22;14887;51.252;7.470;2023-07-13T06:19:50;16.40;1.00
27439;DHT22;14887;51.252;7.470;2023-07-13T06:22:15;16.10;99.90
27439;DHT22;14887;51.252;7.470;2023-07-13T06:24:41;16.00;1.00
27439;DHT22;14887;51.252;7.470;2023-07-13T06:27:06;16.30;1.00
27439;DHT22;14887;51.252;7.470;2023-07-13T06:29:33;16.40;1.00
27439;DHT22;14887;51.252;7.470;2023-07-13T06:31:58;16.40;1.00
27439;DHT22;14887;51.252;7.470;2023-07-13T06:34:24;16.40;1.00
27439;DHT22;14887;51.252;7.470;2023-07-13T06:36:49;16.40;1.00
27439;DHT22;14887;51.252;7.470;2023-07-13T06:39:15;16.30;99.90
27439;DHT22;14887;51.252;7.470;2023-07-13T06:41:41;16.40;99.90
27439;DHT22;14887;51.252;7.470;2023-07-13T06:44:06;16.60;1.00
27439;DHT22;14887;51.252;7.470;2023-07-13T06:46:32;16.50;1.00
27439;DHT22;14887;51.252;7.470;2023-07-13T06:48:57;16.70;1.00
27439;DHT22;14887;51.252;7.470;2023-07-13T06:51:23;17.20;99.90
27439;DHT22;14887;51.252;7.470;2023-07-13T06:53:48;17.80;1.00
27439;DHT22;14887;51.252;7.470;2023-07-13T06:56:15;17.80;1.00
27439;DHT22;14887;51.252;7.470;2023-07-13T06:58:41;17.90;99.90
27439;DHT22;14887;51.252;7.470;2023-07-13T07:01:06;18.30;99.90
27439;DHT22;14887;51.252;7.470;2023-07-13T07:03:32;18.40;99.90
27439;DHT22;14887;51.252;7.470;2023-07-13T07:06:21;18.40;99.90
27439;DHT22;14887;51.252;7.470;2023-07-13T07:08:49;19.30;99.90
27439;DHT22;14887;51.252;7.470;2023-07-13T07:11:19;20.10;1.00
27439;DHT22;14887;51.252;7.470;2023-07-13T07:13:45;20.60;1.00
27439;DHT22;14887;51.252;7.470;2023-07-13T07:16:10;20.70;1.00
27439;DHT22;14887;51.252;7.470;2023-07-13T07:18:36;20.60;1.00
27439;DHT22;14887;51.252;7.470;2023-07-13T07:21:02;20.50;1.00
27439;DHT22;14887;51.252;7.470;2023-07-13T07:23:28;20.60;1.00
27439;DHT22;14887;51.252;7.470;2023-07-13T07:25:54;20.50;1.00
27439;DHT22;14887;51.252;7.470;2023-07-13T07:28:19;21.00;1.00
27439;DHT22;14887;51.252;7.470;2023-07-13T07:30:45;21.00;99.90
27439;DHT22;14887;51.252;7.470;2023-07-13T07:33:11;20.70;99.90
27439;DHT22;14887;51.252;7.470;2023-07-13T07:35:37;20.10;1.00
27439;DHT22;14887;51.252;7.470;2023-07-13T07:38:03;20.00;1.00
27439;DHT22;14887;51.252;7.470;2023-07-13T07:40:28;20.50;1.00
27439;DHT22;14887;51.252;7.470;2023-07-13T07:42:54;21.00;99.90
27439;DHT22;14887;51.252;7.470;2023-07-13T07:45:20;20.80;99.90
27439;DHT22;14887;51.252;7.470;2023-07-13T07:47:46;21.30;99.90
27439;DHT22;14887;51.252;7.470;2023-07-13T07:50:12;22.30;99.90
27439;DHT22;14887;51.252;7.470;2023-07-13T07:52:38;22.90;99.90
27439;DHT22;14887;51.252;7.470;2023-07-13T07:55:05;23.00;99.90
27439;DHT22;14887;51.252;7.470;2023-07-13T07:57:31;22.40;99.90
27439;DHT22;14887;51.252;7.470;2023-07-13T07:59:57;22.60;99.90
27439;DHT22;14887;51.252;7.470;2023-07-13T08:02:24;23.00;99.90
27439;DHT22;14887;51.252;7.470;2023-07-13T08:04:50;22.70;99.90
27439;DHT22;14887;51.252;7.470;2023-07-13T08:07:16;22.70;99.90
27439;DHT22;14887;51.252;7.470;2023-07-13T08:09:41;22.50;99.90
27439;DHT22;14887;51.252;7.470;2023-07-13T08:12:07;22.70;99.90
27439;DHT22;14887;51.252;7.470;2023-07-13T08:14:33;23.20;99.90
27439;DHT22;14887;51.252;7.470;2023-07-13T08:16:58;22.50;99.90
27439;DHT22;14887;51.252;7.470;2023-07-13T08:19:24;22.00;99.90
27439;DHT22;14887;51.252;7.470;2023-07-13T08:21:49;23.00;99.90
27439;DHT22;14887;51.252;7.470;2023-07-13T08:24:15;22.70;99.90
27439;DHT22;14887;51.252;7.470;2023-07-13T08:26:41;22.30;99.90
27439;DHT22;14887;51.252;7.470;2023-07-13T08:29:06;21.70;99.90
27439;DHT22;14887;51.252;7.470;2023-07-13T08:31:32;21.20;99.90
27439;DHT22;14887;51.252;7.470;2023-07-13T08:33:57;20.80;99.90
27439;DHT22;14887;51.252;7.470;2023-07-13T08:36:23;21.20;99.90
27439;DHT22;14887;51.252;7.470;2023-07-13T08:38:48;22.80;99.90
27439;DHT22;14887;51.252;7.470;2023-07-13T08:41:17;23.50;99.90
27439;DHT22;14887;51.252;7.470;2023-07-13T08:43:51;22.60;99.90
27439;DHT22;14887;51.252;7.470;2023-07-13T08:46:24;22.00;99.90
27439;DHT22;14887;51.252;7.470;2023-07-13T08:48:56;21.30;99.90
27439;DHT22;14887;51.252;7.470;2023-07-13T08:51:36;20.70;99.90
27439;DHT22;14887;51.252;7.470;2023-07-13T08:56:56;20.20;1.00
27439;DHT22;14887;51.252;7.470;2023-07-13T08:59:26;21.10;1.00
27439;DHT22;14887;51.252;7.470;2023-07-13T09:05:08;22.10;99.90
27439;DHT22;14887;51.252;7.470;2023-07-13T09:10:31;23.20;99.90
27439;DHT22;14887;51.252;7.470;2023-07-13T09:15:43;22.80;99.90
27439;DHT22;14887;51.252;7.470;2023-07-13T09:18:16;24.10;99.90
27439;DHT22;14887;51.252;7.470;2023-07-13T09:20:49;24.70;99.90
27439;DHT22;14887;51.252;7.470;2023-07-13T09:23:20;25.20;99.90
27439;DHT22;14887;51.252;7.470;2023-07-13T09:25:48;24.80;99.90
27439;DHT22;14887;51.252;7.470;2023-07-13T09:28:24;23.80;99.90
27439;DHT22;14887;51.252;7.470;2023-07-13T09:31:05;22.90;99.90
27439;DHT22;14887;51.252;7.470;2023-07-13T09:33:32;23.30;99.90
27439;DHT22;14887;51.252;7.470;2023-07-13T09:36:00;23.40;99.90
27439;DHT22;14887;51.252;7.470;2023-07-13T09:38:29;23.90;99.90
27439;DHT22;14887;51.252;7.470;2023-07-13T09:41:29;23.90;99.90
27439;DHT22;14887;51.252;7.470;2023-07-13T09:44:16;23.80;99.90
27439;DHT22;14887;51.252;7.470;2023-07-13T09:46:46;23.00;99.90
27439;DHT22;14887;51.252;7.470;2023-07-13T09:49:17;22.20;99.90
27439;DHT22;14887;51.252;7.470;2023-07-13T09:51:44;23.40;99.90
27439;DHT22;14887;51.252;7.470;2023-07-13T09:54:21;24.30;99.90
27439;DHT22;14887;51.252;7.470;2023-07-13T09:56:47;24.30;99.90
27439;DHT22;14887;51.252;7.470;2023-07-13T09:59:20;23.90;99.90
27439;DHT22;14887;51.252;7.470;2023-07-13T10:01:49;23.60;99.90
27439;DHT22;14887;51.252;7.470;2023-07-13T10:04:18;24.10;99.90
27439;DHT22;14887;51.252;7.470;2023-07-13T10:06:44;24.10;99.90
27439;DHT22;14887;51.252;7.470;2023-07-13T10:09:14;24.20;99.90
27439;DHT22;14887;51.252;7.470;2023-07-13T10:11:41;24.60;99.90
27439;DHT22;14887;51.252;7.470;2023-07-13T10:14:20;24.30;99.90
27439;DHT22;14887;51.252;7.470;2023-07-13T10:17:01;23.40;99.90
27439;DHT22;14887;51.252;7.470;2023-07-13T10:19:31;22.70;99.90
27439;DHT22;14887;51.252;7.470;2023-07-13T10:22:10;22.70;99.90
27439;DHT22;14887;51.252;7.470;2023-07-13T10:24:39;23.60;99.90
27439;DHT22;14887;51.252;7.470;2023-07-13T10:30:09;22.80;99.90
27439;DHT22;14887;51.252;7.470;2023-07-13T10:32:38;21.90;99.90
27439;DHT22;14887;51.252;7.470;2023-07-13T10:35:03;21.70;99.90
27439;DHT22;14887;51.252;7.470;2023-07-13T10:40:37;22.10;99.90
27439;DHT22;14887;51.252;7.470;2023-07-13T10:43:07;22.20;99.90
27439;DHT22;14887;51.252;7.470;2023-07-13T10:45:35;21.70;99.90
27439;DHT22;14887;51.252;7.470;2023-07-13T10:48:03;21.70;99.90
27439;DHT22;14887;51.252;7.470;2023-07-13T10:50:29;21.60;99.90
27439;DHT22;14887;51.252;7.470;2023-07-13T10:53:22;21.60;99.90
27439;DHT22;14887;51.252;7.470;2023-07-13T10:58:32;21.70;99.90
27439;DHT22;14887;51.252;7.470;2023-07-13T11:01:15;22.90;99.90
27439;DHT22;14887;51.252;7.470;2023-07-13T11:08:55;23.40;99.90
27439;DHT22;14887;51.252;7.470;2023-07-13T11:18:45;24.00;99.90
27439;DHT22;14887;51.252;7.470;2023-07-13T11:21:22;23.40;99.90
27439;DHT22;14887;51.252;7.470;2023-07-13T11:24:02;22.50;99.90
27439;DHT22;14887;51.252;7.470;2023-07-13T11:26:44;22.00;99.90
27439;DHT22;14887;51.252;7.470;2023-07-13T11:31:53;23.00;99.90
27439;DHT22;14887;51.252;7.470;2023-07-13T11:34:33;24.30;99.90
27439;DHT22;14887;51.252;7.470;2023-07-13T11:37:01;24.30;99.90
27439;DHT22;14887;51.252;7.470;2023-07-13T11:39:40;23.60;99.90
27439;DHT22;14887;51.252;7.470;2023-07-13T11:42:12;23.20;99.90
27439;DHT22;14887;51.252;7.470;2023-07-13T11:44:43;23.60;99.90
27439;DHT22;14887;51.252;7.470;2023-07-13T11:47:19;23.70;99.90
27439;DHT22;14887;51.252;7.470;2023-07-13T11:49:50;23.10;99.90
27439;DHT22;14887;51.252;7.470;2023-07-13T11:52:22;23.00;99.90
27439;DHT22;14887;51.252;7.470;2023-07-13T11:54:54;23.90;99.90
27439;DHT22;14887;51.252;7.470;2023-07-13T11:57:32;24.00;99.90
27439;DHT22;14887;51.252;7.470;2023-07-13T12:00:13;23.30;99.90
27439;DHT22;14887;51.252;7.470;2023-07-13T12:02:46;22.90;99.90
27439;DHT22;14887;51.252;7.470;2023-07-13T12:05:16;22.50;99.90
27439;DHT22;14887;51.252;7.470;2023-07-13T12:07:43;22.80;99.90
27439;DHT22;14887;51.252;7.470;2023-07-13T12:12:40;22.80;99.90
27439;DHT22;14887;51.252;7.470;2023-07-13T12:15:12;23.20;99.90
27439;DHT22;14887;51.252;7.470;2023-07-13T12:17:37;23.60;99.90
27439;DHT22;14887;51.252;7.470;2023-07-13T12:20:23;24.20;99.90
27439;DHT22;14887;51.252;7.470;2023-07-13T12:22:50;23.30;99.90
27439;DHT22;14887;51.252;7.470;2023-07-13T12:25:17;23.10;99.90
27439;DHT22;14887;51.252;7.470;2023-07-13T12:27:50;22.90;99.90
27439;DHT22;14887;51.252;7.470;2023-07-13T12:30:31;22.80;99.90
27439;DHT22;14887;51.252;7.470;2023-07-13T12:33:07;23.50;99.90
27439;DHT22;14887;51.252;7.470;2023-07-13T12:35:42;24.40;99.90
27439;DHT22;14887;51.252;7.470;2023-07-13T12:38:11;25.60;99.90
27439;DHT22;14887;51.252;7.470;2023-07-13T12:40:38;26.40;99.90
27439;DHT22;14887;51.252;7.470;2023-07-13T12:43:09;26.40;90.50
27439;DHT22;14887;51.252;7.470;2023-07-13T12:45:36;25.90;83.80
27439;DHT22;14887;51.252;7.470;2023-07-13T12:48:10;25.80;82.20
27439;DHT22;14887;51.252;7.470;2023-07-13T12:50:40;25.90;84.00
27439;DHT22;14887;51.252;7.470;2023-07-13T12:53:13;26.10;82.70
27439;DHT22;14887;51.252;7.470;2023-07-13T12:56:01;26.50;87.20
27439;DHT22;14887;51.252;7.470;2023-07-13T12:58:32;27.40;85.70
27439;DHT22;14887;51.252;7.470;2023-07-13T13:01:01;27.60;78.80
27439;DHT22;14887;51.252;7.470;2023-07-13T13:06:03;27.50;57.20
27439;DHT22;14887;51.252;7.470;2023-07-13T13:08:33;27.70;58.10
27439;DHT22;14887;51.252;7.470;2023-07-13T13:11:00;28.10;54.70
27439;DHT22;14887;51.252;7.470;2023-07-13T13:13:26;27.60;50.40
27439;DHT22;14887;51.252;7.470;2023-07-13T13:15:51;26.60;43.70
27439;DHT22;14887;51.252;7.470;2023-07-13T13:18:23;25.80;34.90
27439;DHT22;14887;51.252;7.470;2023-07-13T13:20:50;24.60;28.30
27439;DHT22;14887;51.252;7.470;2023-07-13T13:23:18;23.40;34.30
27439;DHT22;14887;51.252;7.470;2023-07-13T13:25:46;23.30;51.40
27439;DHT22;14887;51.252;7.470;2023-07-13T13:28:16;24.70;63.60
27439;DHT22;14887;51.252;7.470;2023-07-13T13:30:44;25.10;54.10
27439;DHT22;14887;51.252;7.470;2023-07-13T13:33:16;24.10;43.10
27439;DHT22;14887;51.252;7.470;2023-07-13T13:35:42;23.50;44.10
27439;DHT22;14887;51.252;7.470;2023-07-13T13:38:21;23.80;55.10
27439;DHT22;14887;51.252;7.470;2023-07-13T13:40:48;25.00;63.60
27439;DHT22;14887;51.252;7.470;2023-07-13T13:45:43;26.80;55.10
27439;DHT22;14887;51.252;7.470;2023-07-13T13:48:17;25.90;38.90
27439;DHT22;14887;51.252;7.470;2023-07-13T13:50:43;24.80;35.90
27439;DHT22;14887;51.252;7.470;2023-07-13T13:53:11;25.20;42.90
27439;DHT22;14887;51.252;7.470;2023-07-13T13:55:38;26.20;59.50
27439;DHT22;14887;51.252;7.470;2023-07-13T13:58:04;26.80;50.30
27439;DHT22;14887;51.252;7.470;2023-07-13T14:00:30;27.20;46.90
27439;DHT22;14887;51.252;7.470;2023-07-13T14:02:56;27.30;38.10
27439;DHT22;14887;51.252;7.470;2023-07-13T14:05:24;26.70;31.20
27439;DHT22;14887;51.252;7.470;2023-07-13T14:07:52;27.60;42.30
27439;DHT22;14887;51.252;7.470;2023-07-13T14:10:18;27.70;34.60
27439;DHT22;14887;51.252;7.470;2023-07-13T14:12:48;26.60;23.80
27439;DHT22;14887;51.252;7.470;2023-07-13T14:15:24;25.10;18.00
27439;DHT22;14887;51.252;7.470;2023-07-13T14:17:51;24.90;23.70
27439;DHT22;14887;51.252;7.470;2023-07-13T14:20:18;24.70;20.00
27439;DHT22;14887;51.252;7.470;2023-07-13T14:22:45;24.60;21.70
27439;DHT22;14887;51.252;7.470;2023-07-13T14:25:12;23.90;18.30
27439;DHT22;14887;51.252;7.470;2023-07-13T14:27:38;23.10;16.50
27439;DHT22;14887;51.252;7.470;2023-07-13T14:30:15;22.90;23.10
27439;DHT22;14887;51.252;7.470;2023-07-13T14:32:41;22.80;25.10
27439;DHT22;14887;51.252;7.470;2023-07-13T14:35:11;23.00;39.40
27439;DHT22;14887;51.252;7.470;2023-07-13T14:37:38;23.70;36.60
27439;DHT22;14887;51.252;7.470;2023-07-13T14:40:19;24.40;30.70
27439;DHT22;14887;51.252;7.470;2023-07-13T14:42:46;24.10;27.60
27439;DHT22;14887;51.252;7.470;2023-07-13T14:45:19;23.30;22.20
27439;DHT22;14887;51.252;7.470;2023-07-13T14:47:46;22.70;21.60
27439;DHT22;14887;51.252;7.470;2023-07-13T14:50:20;22.20;24.10
27439;DHT22;14887;51.252;7.470;2023-07-13T14:52:47;21.70;31.30
27439;DHT22;14887;51.252;7.470;2023-07-13T14:55:16;21.20;37.10
27439;DHT22;14887;51.252;7.470;2023-07-13T14:57:42;21.00;51.70
27439;DHT22;14887;51.252;7.470;2023-07-13T15:00:18;20.80;80.20
27439;DHT22;14887;51.252;7.470;2023-07-13T15:02:47;20.50;99.90
27439;DHT22;14887;51.252;7.470;2023-07-13T15:05:17;20.40;99.90
27439;DHT22;14887;51.252;7.470;2023-07-13T15:07:43;20.40;99.90
27439;DHT22;14887;51.252;7.470;2023-07-13T15:10:17;20.60;99.90
27439;DHT22;14887;51.252;7.470;2023-07-13T15:12:43;20.70;99.90
27439;DHT22;14887;51.252;7.470;2023-07-13T15:15:09;20.70;99.90
27439;DHT22;14887;51.252;7.470;2023-07-13T15:17:43;20.60;99.90
27439;DHT22;14887;51.252;7.470;2023-07-13T15:20:36;20.40;1.00
27439;DHT22;14887;51.252;7.470;2023-07-13T15:23:02;20.20;1.00
27439;DHT22;14887;51.252;7.470;2023-07-13T15:25:30;20.10;1.00
27439;DHT22;14887;51.252;7.470;2023-07-13T15:27:57;20.30;1.00
27439;DHT22;14887;51.252;7.470;2023-07-13T15:30:26;20.50;99.90
27439;DHT22;14887;51.252;7.470;2023-07-13T15:32:52;20.90;99.90
27439;DHT22;14887;51.252;7.470;2023-07-13T15:35:21;21.20;99.90
27439;DHT22;14887;51.252;7.470;2023-07-13T15:37:48;21.50;99.90
27439;DHT22;14887;51.252;7.470;2023-07-13T15:40:14;21.80;99.90
27439;DHT22;14887;51.252;7.470;2023-07-13T15:42:44;21.90;99.90
27439;DHT22;14887;51.252;7.470;2023-07-13T15:45:18;21.80;99.90
27439;DHT22;14887;51.252;7.470;2023-07-13T15:47:45;21.50;99.90
27439;DHT22;14887;51.252;7.470;2023-07-13T15:50:22;21.30;99.90
27439;DHT22;14887;51.252;7.470;2023-07-13T15:52:52;21.00;99.90
27439;DHT22;14887;51.252;7.470;2023-07-13T15:55:19;20.80;99.90
27439;DHT22;14887;51.252;7.470;2023-07-13T15:57:48;20.50;99.90
27439;DHT22;14887;51.252;7.470;2023-07-13T16:00:26;19.90;1.00
27439;DHT22;14887;51.252;7.470;2023-07-13T16:02:52;19.20;99.90
27439;DHT22;14887;51.252;7.470;2023-07-13T16:05:20;18.20;1.00
27439;DHT22;14887;51.252;7.470;2023-07-13T16:07:48;17.50;1.00
27439;DHT22;14887;51.252;7.470;2023-07-13T16:10:21;16.90;99.90
27439;DHT22;14887;51.252;7.470;2023-07-13T16:12:48;16.50;1.00
27439;DHT22;14887;51.252;7.470;2023-07-13T16:15:16;16.30;99.90
27439;DHT22;14887;51.252;7.470;2023-07-13T16:17:42;16.10;99.90
27439;DHT22;14887;51.252;7.470;2023-07-13T16:20:09;16.00;1.00
27439;DHT22;14887;51.252;7.470;2023-07-13T16:22:39;16.00;1.00
27439;DHT22;14887;51.252;7.470;2023-07-13T16:25:18;16.00;1.00